Joy — V2EI9 — position and weather

sailwx.info

Track history (hours):
 
Tides and Currents Weather Stations Pressure Air Temp Water Temp Dewpoint Dewpoint Depression Visibility Wind Speed Wind Dir Waves Ship Positions

Joy

Last reported at 2016-Aug-28 01:25 UTC. Time now 2016-Aug-28 05:12 UTC.
Position N 48°59' W 005°01'.

; draft 6.2 m.

Type: Cargo ship. MMSI: 305444000.

Date/timePositionNaut miles runAvg speedWind from/ knotsBaromVisibWave heightAir tempDewpointWater temp
2016-Aug-28 01:25N 48°59' W 005°01'1011.1
2016-Aug-28 00:33N 48°54' W 005°13'43 8.4
2016-Aug-27 19:27N 48°12' W 005°26'9 9.6
2016-Aug-27 18:30N 48°04' W 005°20'9 9.4
2016-Aug-27 17:33N 47°57' W 005°12'9 9.4
2016-Aug-27 16:33N 47°50' W 005°03'10 9.0
2016-Aug-27 15:29N 47°43' W 004°53'20 9.1
2016-Aug-27 13:15N 47°28' W 004°32'6 9.1
2016-Aug-27 12:32N 47°23' W 004°25'9 9.3
2016-Aug-27 11:33N 47°17' W 004°16'9 9.1
2016-Aug-27 10:34N 47°10' W 004°07'10 9.6
2016-Aug-27 09:33N 47°03' W 003°57'9 9.5
2016-Aug-27 08:34N 46°57' W 003°47'10 9.9
2016-Aug-27 07:33N 46°49' W 003°37'10 9.9
2016-Aug-27 06:33N 46°42' W 003°28'20 9.9
2016-Aug-27 04:34N 46°27' W 003°08'10 9.9
2016-Aug-27 03:34N 46°20' W 002°58'10 9.5
2016-Aug-27 02:33N 46°13' W 002°49'9 9.3
2016-Aug-27 01:34N 46°06' W 002°39'9 9.3
2016-Aug-27 00:33N 46°02' W 002°28'9 9.3
2016-Aug-26 23:34N 45°57' W 002°16'9 9.1
2016-Aug-26 22:34N 45°53' W 002°05'9 9.2
2016-Aug-26 21:34N 45°48' W 001°53'9 8.9
2016-Aug-26 20:34N 45°44' W 001°42'9 9.3
2016-Aug-26 19:34N 45°39' W 001°30'9 8.5
2016-Aug-26 18:33N 45°38' W 001°18'54 1.6
2016-Aug-25 08:24N 44°55' W 000°33'0 0.0
2016-Aug-25 07:15N 44°55' W 000°33'0 0.0
2016-Aug-25 04:18N 44°55' W 000°33'0 0.0
2016-Aug-24 22:08N 44°55' W 000°33'710.4
2016-Aug-24 21:29N 45°01' W 000°36'2813.1
2016-Aug-24 19:22N 45°26' W 000°53'1113.2
2016-Aug-24 18:34N 45°34' W 001°03'1110.8
2016-Aug-24 17:33N 45°38' W 001°17'1110.6
2016-Aug-24 16:33N 45°36' W 001°32'1111.2
2016-Aug-24 15:33N 45°32' W 001°47'1211.4
2016-Aug-24 14:28N 45°28' W 002°04'1211.8
2016-Aug-24 13:29N 45°24' W 002°19'1010.6
2016-Aug-24 12:33N 45°20' W 002°32'5611.2
2016-Aug-24 07:33N 45°00' W 003°47'8111.2
2016-Aug-24 00:17N 44°31' W 005°34'1110.8
2016-Aug-23 23:18N 44°27' W 005°47'810.9
2016-Aug-23 22:33N 44°24' W 005°58'1111.3
2016-Aug-23 21:33N 44°20' W 006°13'1111.1
2016-Aug-23 20:34N 44°16' W 006°27'1110.6
2016-Aug-23 19:33N 44°12' W 006°41'1410.9
2016-Aug-23 18:16N 44°07' W 006°59'810.9
2016-Aug-23 17:32N 44°04' W 007°10'1110.5
2016-Aug-23 16:31N 44°00' W 007°23'1010.4
2016-Aug-23 15:33N 43°57' W 007°36'1110.6
2016-Aug-23 14:33N 43°53' W 007°50'37 2.3
2016-Aug-22 22:30N 43°39' W 008°38'0 0.5
2016-Aug-22 21:33N 43°39' W 008°37'3 3.2
2016-Aug-22 20:33N 43°39' W 008°33'1110.6
2016-Aug-22 19:33N 43°43' W 008°19'1110.6
2016-Aug-22 18:33N 43°47' W 008°06'1010.1
2016-Aug-22 17:33N 43°48' W 007°52'8 8.3
2016-Aug-22 16:33N 43°46' W 008°03'1110.5
2016-Aug-22 15:33N 43°42' W 008°17'20 2.5
2016-Aug-22 07:29N 43°33' W 008°41'258 7.6
2016-Aug-20 21:30N 39°21' W 009°49'7 7.5
2016-Aug-20 20:33N 39°14' W 009°49'8 7.8
2016-Aug-20 19:33N 39°06' W 009°50'8 8.0
2016-Aug-20 18:33N 38°58' W 009°50'8 8.3
2016-Aug-20 17:33N 38°50' W 009°50'9 9.0
2016-Aug-20 16:33N 38°41' W 009°50'9 9.3
2016-Aug-20 15:33N 38°32' W 009°47'9 9.1
2016-Aug-20 14:33N 38°23' W 009°44'9 9.3
2016-Aug-20 13:33N 38°14' W 009°42'9 9.1
2016-Aug-20 12:33N 38°05' W 009°39'9 8.9
2016-Aug-20 11:33N 37°56' W 009°36'57 9.3
2016-Aug-20 05:27N 37°01' W 009°20'  
Track history (hours):
 
Tides and Currents Weather Stations Pressure Air Temp Water Temp Dewpoint Dewpoint Depression Visibility Wind Speed Wind Dir Waves Ship Positions

Joy

Last reported at 2016-Aug-28 01:25 UTC. Time now 2016-Aug-28 05:12 UTC.
Position N 48°59' W 005°01'.

; draft 6.2 m.

Type: Cargo ship. MMSI: 305444000.

Date/timePositionNaut miles runAvg speedWind from/ knotsBaromVisibWave heightAir tempDewpointWater temp
2016-Aug-28 01:25N 48°59' W 005°01'1011.1
2016-Aug-28 00:33N 48°54' W 005°13'43 8.4
2016-Aug-27 19:27N 48°12' W 005°26'9 9.6
2016-Aug-27 18:30N 48°04' W 005°20'9 9.4
2016-Aug-27 17:33N 47°57' W 005°12'9 9.4
2016-Aug-27 16:33N 47°50' W 005°03'10 9.0
2016-Aug-27 15:29N 47°43' W 004°53'20 9.1
2016-Aug-27 13:15N 47°28' W 004°32'6 9.1
2016-Aug-27 12:32N 47°23' W 004°25'9 9.3
2016-Aug-27 11:33N 47°17' W 004°16'9 9.1
2016-Aug-27 10:34N 47°10' W 004°07'10 9.6
2016-Aug-27 09:33N 47°03' W 003°57'9 9.5
2016-Aug-27 08:34N 46°57' W 003°47'10 9.9
2016-Aug-27 07:33N 46°49' W 003°37'10 9.9
2016-Aug-27 06:33N 46°42' W 003°28'20 9.9
2016-Aug-27 04:34N 46°27' W 003°08'10 9.9
2016-Aug-27 03:34N 46°20' W 002°58'10 9.5
2016-Aug-27 02:33N 46°13' W 002°49'9 9.3
2016-Aug-27 01:34N 46°06' W 002°39'9 9.3
2016-Aug-27 00:33N 46°02' W 002°28'9 9.3
2016-Aug-26 23:34N 45°57' W 002°16'9 9.1
2016-Aug-26 22:34N 45°53' W 002°05'9 9.2
2016-Aug-26 21:34N 45°48' W 001°53'9 8.9
2016-Aug-26 20:34N 45°44' W 001°42'9 9.3
2016-Aug-26 19:34N 45°39' W 001°30'9 8.5
2016-Aug-26 18:33N 45°38' W 001°18'54 1.6
2016-Aug-25 08:24N 44°55' W 000°33'0 0.0
2016-Aug-25 07:15N 44°55' W 000°33'0 0.0
2016-Aug-25 04:18N 44°55' W 000°33'0 0.0
2016-Aug-24 22:08N 44°55' W 000°33'710.4
2016-Aug-24 21:29N 45°01' W 000°36'2813.1
2016-Aug-24 19:22N 45°26' W 000°53'1113.2
2016-Aug-24 18:34N 45°34' W 001°03'1110.8
2016-Aug-24 17:33N 45°38' W 001°17'1110.6
2016-Aug-24 16:33N 45°36' W 001°32'1111.2
2016-Aug-24 15:33N 45°32' W 001°47'1211.4
2016-Aug-24 14:28N 45°28' W 002°04'1211.8
2016-Aug-24 13:29N 45°24' W 002°19'1010.6
2016-Aug-24 12:33N 45°20' W 002°32'5611.2
2016-Aug-24 07:33N 45°00' W 003°47'8111.2
2016-Aug-24 00:17N 44°31' W 005°34'1110.8
2016-Aug-23 23:18N 44°27' W 005°47'810.9
2016-Aug-23 22:33N 44°24' W 005°58'1111.3
2016-Aug-23 21:33N 44°20' W 006°13'1111.1
2016-Aug-23 20:34N 44°16' W 006°27'1110.6
2016-Aug-23 19:33N 44°12' W 006°41'1410.9
2016-Aug-23 18:16N 44°07' W 006°59'810.9
2016-Aug-23 17:32N 44°04' W 007°10'1110.5
2016-Aug-23 16:31N 44°00' W 007°23'1010.4
2016-Aug-23 15:33N 43°57' W 007°36'1110.6
2016-Aug-23 14:33N 43°53' W 007°50'37 2.3
2016-Aug-22 22:30N 43°39' W 008°38'0 0.5
2016-Aug-22 21:33N 43°39' W 008°37'3 3.2
2016-Aug-22 20:33N 43°39' W 008°33'1110.6
2016-Aug-22 19:33N 43°43' W 008°19'1110.6
2016-Aug-22 18:33N 43°47' W 008°06'1010.1
2016-Aug-22 17:33N 43°48' W 007°52'8 8.3
2016-Aug-22 16:33N 43°46' W 008°03'1110.5
2016-Aug-22 15:33N 43°42' W 008°17'20 2.5
2016-Aug-22 07:29N 43°33' W 008°41'258 7.6
2016-Aug-20 21:30N 39°21' W 009°49'7 7.5
2016-Aug-20 20:33N 39°14' W 009°49'8 7.8
2016-Aug-20 19:33N 39°06' W 009°50'8 8.0
2016-Aug-20 18:33N 38°58' W 009°50'8 8.3
2016-Aug-20 17:33N 38°50' W 009°50'9 9.0
2016-Aug-20 16:33N 38°41' W 009°50'9 9.3
2016-Aug-20 15:33N 38°32' W 009°47'9 9.1
2016-Aug-20 14:33N 38°23' W 009°44'9 9.3
2016-Aug-20 13:33N 38°14' W 009°42'9 9.1
2016-Aug-20 12:33N 38°05' W 009°39'9 8.9
2016-Aug-20 11:33N 37°56' W 009°36'57 9.3
2016-Aug-20 05:27N 37°01' W 009°20'  

Dump ship's entire track history